createdAt,value
2022-08-17T00:01:01.710Z,79.54
2022-08-17T00:03:39.112Z,78.99
2022-08-17T00:06:19.785Z,79.16
2022-08-17T00:08:57.987Z,79.35
2022-08-17T00:11:37.147Z,78.99
2022-08-17T00:14:13.658Z,79.76
2022-08-17T00:16:56.452Z,79.52
2022-08-17T00:19:32.633Z,79.48
2022-08-17T00:22:31.814Z,80.15
2022-08-17T00:25:02.001Z,79.96
2022-08-17T00:27:35.663Z,79.88
2022-08-17T00:30:13.080Z,80.55
2022-08-17T00:33:23.055Z,80.90
2022-08-17T00:35:43.386Z,80.57
2022-08-17T00:38:17.225Z,80.44
2022-08-17T00:40:56.001Z,80.23
2022-08-17T00:43:37.818Z,80.14
2022-08-17T00:46:15.969Z,80.39
2022-08-17T00:48:49.990Z,80.13
2022-08-17T00:51:32.266Z,81.33
2022-08-17T00:54:11.851Z,81.36
2022-08-17T00:56:51.211Z,81.48
2022-08-17T00:59:30.900Z,82.05
2022-08-17T01:02:06.292Z,81.96
2022-08-17T01:04:40.483Z,81.79
2022-08-17T01:07:14.884Z,81.65
2022-08-17T01:09:48.541Z,81.82
2022-08-17T01:12:23.523Z,81.62
2022-08-17T01:14:56.681Z,81.02
2022-08-17T01:17:29.846Z,81.18
2022-08-17T01:20:03.664Z,80.76
2022-08-17T01:22:38.239Z,80.49
2022-08-17T01:25:13.272Z,79.40
2022-08-17T01:27:47.091Z,80.21
2022-08-17T01:30:57.921Z,80.34
2022-08-17T01:33:13.471Z,80.34
2022-08-17T01:35:46.579Z,79.90
2022-08-17T01:38:27.235Z,80.90
2022-08-17T01:41:04.996Z,80.44
2022-08-17T01:43:44.042Z,80.12
2022-08-17T01:46:24.692Z,80.64
2022-08-17T01:48:58.610Z,81.01
2022-08-17T01:51:33.658Z,80.93
2022-08-17T01:54:12.939Z,80.62
2022-08-17T01:56:51.711Z,80.58
2022-08-17T01:59:24.922Z,80.73
2022-08-17T02:01:58.285Z,81.15
2022-08-17T02:04:31.966Z,81.33
2022-08-17T02:07:05.241Z,81.62
2022-08-17T02:09:39.709Z,80.92
2022-08-17T02:12:39.206Z,81.05
2022-08-17T02:15:12.434Z,81.99
2022-08-17T02:17:45.785Z,81.44
2022-08-17T02:20:42.359Z,82.35
2022-08-17T02:23:14.458Z,82.64
2022-08-17T02:25:49.576Z,82.35
2022-08-17T02:28:22.700Z,82.76
2022-08-17T02:31:02.002Z,83.10
2022-08-17T02:33:42.756Z,82.81
2022-08-17T02:36:16.724Z,82.99
2022-08-17T02:38:49.959Z,83.73
2022-08-17T02:41:24.371Z,83.27
2022-08-17T02:43:57.470Z,82.94
2022-08-17T02:46:32.098Z,82.78
2022-08-17T02:49:06.379Z,82.23
2022-08-17T02:51:39.496Z,83.20
2022-08-17T02:54:41.221Z,83.22
2022-08-17T02:57:07.310Z,83.43
2022-08-17T02:59:46.798Z,83.18
2022-08-17T03:02:22.023Z,83.34
2022-08-17T03:04:55.166Z,83.10
2022-08-17T03:07:28.292Z,83.33
2022-08-17T03:10:01.508Z,83.49
2022-08-17T03:12:39.595Z,84.11
2022-08-17T03:15:17.489Z,84.29
2022-08-17T03:17:52.070Z,84.38
2022-08-17T03:20:29.550Z,84.03
2022-08-17T03:23:03.041Z,84.04
2022-08-17T03:25:41.103Z,85.06
2022-08-17T03:28:18.146Z,84.66
2022-08-17T03:30:52.143Z,84.30
2022-08-17T03:33:25.313Z,84.83
2022-08-17T03:35:59.460Z,84.92
2022-08-17T03:38:38.986Z,84.88
2022-08-17T03:41:13.879Z,85.32
2022-08-17T03:43:48.379Z,85.58
2022-08-17T03:46:38.844Z,85.96
2022-08-17T03:49:29.527Z,84.73
2022-08-17T03:52:28.572Z,85.61
2022-08-17T03:55:36.136Z,85.54
2022-08-17T03:58:10.210Z,85.37
2022-08-17T04:00:46.243Z,85.78
2022-08-17T04:03:19.700Z,85.80
2022-08-17T04:05:52.769Z,85.71
2022-08-17T04:08:25.895Z,85.92
2022-08-17T04:11:00.605Z,86.15
2022-08-17T04:13:33.698Z,86.29
2022-08-17T04:16:08.633Z,86.09
2022-08-17T04:18:41.762Z,86.37
2022-08-17T04:21:15.022Z,86.48
2022-08-17T04:23:48.565Z,86.60
2022-08-17T04:26:52.847Z,86.89
2022-08-17T04:29:16.767Z,86.44
2022-08-17T04:31:51.969Z,86.76
2022-08-17T04:34:25.142Z,86.89
2022-08-17T04:36:58.250Z,87.19
2022-08-17T04:39:33.804Z,86.54
2022-08-17T04:42:17.037Z,86.41
2022-08-17T04:44:50.207Z,86.10
2022-08-17T04:47:24.699Z,86.45
2022-08-17T04:49:57.934Z,86.66
2022-08-17T04:52:43.523Z,86.84
2022-08-17T04:55:16.949Z,86.66
2022-08-17T04:57:50.063Z,87.04
2022-08-17T05:00:25.760Z,87.40
2022-08-17T05:03:00.362Z,87.08
2022-08-17T05:05:37.176Z,86.66
2022-08-17T05:08:10.901Z,86.36
2022-08-17T05:10:45.316Z,86.20
2022-08-17T05:13:22.698Z,86.67
2022-08-17T05:15:59.403Z,86.23
2022-08-17T05:18:34.224Z,85.98
2022-08-17T05:21:07.929Z,86.05
2022-08-17T05:23:43.329Z,85.24
2022-08-17T05:26:26.705Z,84.82
2022-08-17T05:29:02.801Z,83.52
2022-08-17T05:31:36.192Z,82.71
2022-08-17T05:34:11.520Z,79.46
2022-08-17T05:36:45.180Z,75.75
2022-08-17T05:39:18.309Z,71.61
2022-08-17T05:41:51.436Z,70.30
2022-08-17T05:44:24.601Z,68.85
2022-08-17T05:47:00.836Z,69.32
2022-08-17T05:49:35.297Z,69.41
2022-08-17T05:52:23.548Z,68.11
2022-08-17T05:55:14.199Z,65.38
2022-08-17T05:58:01.080Z,63.67
2022-08-17T06:00:42.309Z,63.56
2022-08-17T06:03:29.683Z,62.18
2022-08-17T06:06:31.281Z,61.43
2022-08-17T06:09:33.921Z,59.16
2022-08-17T06:12:27.642Z,58.50
2022-08-17T06:15:16.792Z,58.41
2022-08-17T06:17:53.912Z,57.79
2022-08-17T06:20:31.259Z,57.27
2022-08-17T06:23:12.067Z,56.33
2022-08-17T06:25:49.575Z,53.64
2022-08-17T06:28:32.314Z,52.39
2022-08-17T06:31:14.049Z,52.68
2022-08-17T06:33:47.547Z,50.75
2022-08-17T06:36:42.398Z,49.21
2022-08-17T06:39:32.466Z,47.73
2022-08-17T06:43:02.206Z,48.66
2022-08-17T06:45:16.679Z,49.30
2022-08-17T06:48:00.482Z,49.05
2022-08-17T06:50:38.393Z,48.57
2022-08-17T06:53:22.221Z,47.97
2022-08-17T06:56:02.733Z,46.08
2022-08-17T06:58:38.800Z,46.28
2022-08-17T07:01:18.536Z,47.59
2022-08-17T07:03:57.390Z,45.50
2022-08-17T07:06:38.217Z,46.37
2022-08-17T07:09:20.062Z,46.32
2022-08-17T07:11:58.113Z,45.18
2022-08-17T07:14:37.619Z,45.81
2022-08-17T07:17:13.959Z,45.22
2022-08-17T07:19:50.639Z,45.42
2022-08-17T07:22:58.138Z,43.63
2022-08-17T07:25:31.334Z,43.25
2022-08-17T07:28:07.843Z,42.30
2022-08-17T07:30:54.467Z,42.82
2022-08-17T07:33:36.777Z,42.96
2022-08-17T07:36:30.015Z,42.15
2022-08-17T07:39:05.119Z,41.04
2022-08-17T07:41:58.650Z,41.52
2022-08-17T07:44:48.271Z,41.29
2022-08-17T07:47:40.594Z,41.09
2022-08-17T07:50:28.871Z,39.44
2022-08-17T07:53:18.456Z,40.06
2022-08-17T07:55:53.273Z,40.11
2022-08-17T07:58:26.505Z,39.22
2022-08-17T08:01:12.384Z,38.41
2022-08-17T08:03:51.818Z,36.68
2022-08-17T08:06:27.342Z,37.86
2022-08-17T08:09:01.820Z,38.83
2022-08-17T08:11:40.183Z,38.02
2022-08-17T08:14:29.528Z,36.76
2022-08-17T08:17:09.397Z,36.98
2022-08-17T08:19:42.726Z,37.54
2022-08-17T08:22:26.216Z,37.18
2022-08-17T08:25:15.254Z,36.89
2022-08-17T08:28:03.673Z,37.05
2022-08-17T08:30:44.556Z,36.84
2022-08-17T08:33:42.757Z,37.10
2022-08-17T08:37:02.142Z,36.52
2022-08-17T08:39:45.243Z,36.54
2022-08-17T08:42:27.898Z,36.16
2022-08-17T08:45:13.664Z,36.77
2022-08-17T08:48:12.724Z,36.21
2022-08-17T08:51:06.228Z,37.27
2022-08-17T08:53:59.851Z,36.93
2022-08-17T08:56:39.051Z,35.65
2022-08-17T08:59:22.670Z,36.08
2022-08-17T09:02:06.524Z,36.98
2022-08-17T09:05:18.051Z,37.57
2022-08-17T09:08:00.983Z,37.73
2022-08-17T09:10:45.266Z,38.84
2022-08-17T09:13:30.020Z,37.60
2022-08-17T09:16:11.511Z,37.61
2022-08-17T09:19:00.665Z,37.98
2022-08-17T09:21:47.710Z,37.89
2022-08-17T09:24:30.152Z,37.96
2022-08-17T09:27:10.080Z,37.79
2022-08-17T09:29:53.085Z,38.86
2022-08-17T09:32:39.009Z,38.37
2022-08-17T09:35:19.389Z,37.88
2022-08-17T09:38:06.653Z,38.51
2022-08-17T09:40:50.156Z,39.63
2022-08-17T09:43:35.308Z,39.70
2022-08-17T09:46:16.945Z,39.65
2022-08-17T09:48:57.984Z,39.54
2022-08-17T09:51:36.893Z,39.39
2022-08-17T09:54:38.154Z,39.64
2022-08-17T09:57:30.820Z,41.11
2022-08-17T10:00:17.269Z,41.53
2022-08-17T10:03:08.374Z,41.08
2022-08-17T10:05:47.910Z,41.65
2022-08-17T10:08:34.733Z,41.77
2022-08-17T10:11:24.630Z,42.01
2022-08-17T10:14:36.406Z,41.56
2022-08-17T10:17:18.837Z,41.34
2022-08-17T10:20:01.671Z,41.24
2022-08-17T10:23:00.705Z,40.07
2022-08-17T10:25:56.105Z,40.35
2022-08-17T10:28:39.343Z,40.59
2022-08-17T10:31:40.085Z,40.30
2022-08-17T10:34:41.455Z,40.85
2022-08-17T10:38:05.604Z,40.05
2022-08-17T10:40:47.739Z,40.55
2022-08-17T10:43:34.532Z,40.96
2022-08-17T10:46:30.418Z,40.87
2022-08-17T10:49:34.951Z,41.00
2022-08-17T10:52:49.966Z,40.36
2022-08-17T10:55:25.760Z,40.92
2022-08-17T10:58:21.048Z,41.57
2022-08-17T11:00:59.913Z,41.70
2022-08-17T11:03:33.834Z,42.64
2022-08-17T11:06:18.173Z,43.00
2022-08-17T11:09:27.576Z,45.08
2022-08-17T11:12:29.245Z,47.37
2022-08-17T11:15:19.614Z,48.23
2022-08-17T11:18:25.497Z,58.44
2022-08-17T11:21:56.568Z,72.24
2022-08-17T11:24:35.905Z,79.88
2022-08-17T11:27:24.853Z,81.30
2022-08-17T11:30:02.577Z,84.80
2022-08-17T11:32:47.492Z,86.49
2022-08-17T11:35:39.899Z,88.91
2022-08-17T11:38:28.450Z,93.41
2022-08-17T11:41:20.697Z,93.30
2022-08-17T11:44:11.497Z,93.12
2022-08-17T11:47:18.974Z,93.18
2022-08-17T11:50:55.615Z,90.02
2022-08-17T11:58:00.200Z,85.12
2022-08-17T12:00:56.414Z,87.19
2022-08-17T12:03:55.620Z,86.85
2022-08-17T12:06:42.893Z,84.79
2022-08-17T12:09:20.517Z,86.01
2022-08-17T12:12:12.361Z,85.09
2022-08-17T12:15:11.355Z,75.81
2022-08-17T12:17:53.915Z,65.55
2022-08-17T12:20:33.381Z,70.44
2022-08-17T12:23:13.547Z,71.49
2022-08-17T12:25:55.299Z,71.03
2022-08-17T12:28:32.769Z,66.30
2022-08-17T12:31:14.664Z,65.05
2022-08-17T12:33:51.694Z,60.41
2022-08-17T12:36:28.567Z,58.86
2022-08-17T12:39:14.214Z,61.36
2022-08-17T12:41:51.545Z,58.93
2022-08-17T12:44:29.138Z,56.97
2022-08-17T12:47:22.416Z,54.14
2022-08-17T12:50:08.201Z,53.92
2022-08-17T12:53:02.801Z,52.55
2022-08-17T12:55:38.846Z,51.43
2022-08-17T12:58:18.179Z,52.79
2022-08-17T13:00:57.005Z,51.76
2022-08-17T13:03:42.154Z,51.16
2022-08-17T13:06:28.815Z,49.18
2022-08-17T13:09:12.076Z,49.83
2022-08-17T13:11:51.421Z,51.44
2022-08-17T13:14:24.599Z,49.99
2022-08-17T13:17:01.002Z,48.49
2022-08-17T13:19:40.752Z,45.97
2022-08-17T13:22:14.374Z,46.99
2022-08-17T13:24:54.440Z,47.17
2022-08-17T13:27:29.832Z,46.19
2022-08-17T13:30:08.777Z,45.16
2022-08-17T13:32:45.620Z,44.82
2022-08-17T13:35:44.254Z,43.22
2022-08-17T13:38:45.619Z,42.53
2022-08-17T13:41:33.563Z,42.17
2022-08-17T13:44:31.789Z,42.54
2022-08-17T13:47:15.654Z,42.18
2022-08-17T13:49:49.527Z,40.89
2022-08-17T13:52:39.897Z,40.78
2022-08-17T13:55:20.944Z,39.95
2022-08-17T13:58:07.227Z,40.52
2022-08-17T14:00:40.801Z,39.67
2022-08-17T14:03:15.253Z,40.64
2022-08-17T14:05:50.087Z,40.44
2022-08-17T14:08:26.402Z,41.44
2022-08-17T14:10:59.820Z,42.35
2022-08-17T14:13:32.997Z,40.03
2022-08-17T14:16:06.572Z,39.01
2022-08-17T14:18:56.701Z,38.89
2022-08-17T14:21:30.335Z,38.62
2022-08-17T14:24:05.458Z,38.38
2022-08-17T14:26:38.574Z,37.45
2022-08-17T14:29:14.873Z,38.41
2022-08-17T14:31:54.268Z,37.34
2022-08-17T14:34:27.958Z,37.34
2022-08-17T14:37:01.040Z,36.51
2022-08-17T14:39:35.490Z,36.97
2022-08-17T14:42:11.408Z,36.98
2022-08-17T14:44:44.514Z,37.82
2022-08-17T14:47:17.653Z,37.54
2022-08-17T14:49:50.855Z,36.74
2022-08-17T14:52:24.196Z,36.29
2022-08-17T14:54:58.883Z,36.25
2022-08-17T14:57:34.182Z,37.23
2022-08-17T15:00:10.003Z,36.46
2022-08-17T15:02:50.928Z,37.35
2022-08-17T15:05:27.109Z,36.95
2022-08-17T15:08:00.983Z,37.48
2022-08-17T15:10:36.147Z,36.08
2022-08-17T15:13:19.155Z,35.44
2022-08-17T15:15:52.947Z,36.55
2022-08-17T15:18:26.026Z,36.26
2022-08-17T15:20:59.192Z,36.61
2022-08-17T15:23:32.926Z,37.35
2022-08-17T15:26:08.363Z,36.67
2022-08-17T15:28:41.428Z,36.10
2022-08-17T15:31:14.859Z,36.92
2022-08-17T15:33:47.930Z,36.36
2022-08-17T15:36:21.082Z,36.34
2022-08-17T15:38:54.184Z,36.22
2022-08-17T15:41:29.414Z,36.10
2022-08-17T15:44:02.861Z,37.32
2022-08-17T15:46:35.925Z,35.22
2022-08-17T15:49:09.782Z,35.72
2022-08-17T15:51:42.860Z,35.49
2022-08-17T15:54:18.871Z,35.30
2022-08-17T15:56:57.023Z,36.09
2022-08-17T15:59:30.955Z,34.73
2022-08-17T16:03:14.331Z,35.01
2022-08-17T16:04:57.994Z,35.91
2022-08-17T16:07:31.605Z,36.10
2022-08-17T16:10:06.588Z,36.02
2022-08-17T16:12:41.886Z,36.49
2022-08-17T16:15:16.239Z,35.24
2022-08-17T16:17:49.359Z,34.97
2022-08-17T16:20:22.596Z,35.51
2022-08-17T16:22:56.165Z,35.45
2022-08-17T16:25:52.573Z,36.43
2022-08-17T16:28:35.629Z,35.78
2022-08-17T16:31:09.749Z,36.80
2022-08-17T16:33:43.440Z,37.22
2022-08-17T16:36:37.414Z,37.38
2022-08-17T16:39:10.479Z,37.15
2022-08-17T16:41:47.040Z,37.27
2022-08-17T16:44:22.944Z,37.97
2022-08-17T16:46:56.033Z,38.02
2022-08-17T16:49:37.105Z,38.24
2022-08-17T16:52:11.477Z,38.78
2022-08-17T16:54:46.722Z,39.57
2022-08-17T16:57:20.324Z,41.10
2022-08-17T16:59:55.157Z,41.42
2022-08-17T17:02:31.549Z,42.00
2022-08-17T17:05:24.448Z,41.99
2022-08-17T17:08:07.664Z,42.37
2022-08-17T17:10:46.157Z,43.22
2022-08-17T17:13:26.885Z,43.29
2022-08-17T17:16:15.609Z,43.82
2022-08-17T17:19:06.933Z,43.76
2022-08-17T17:21:48.009Z,44.83
2022-08-17T17:24:30.633Z,46.18
2022-08-17T17:27:20.937Z,47.08
2022-08-17T17:30:07.944Z,48.14
2022-08-17T17:32:50.333Z,48.50
2022-08-17T17:35:27.546Z,48.90
2022-08-17T17:38:07.385Z,48.57
2022-08-17T17:40:44.342Z,48.88
2022-08-17T17:43:38.508Z,49.42
2022-08-17T17:46:28.219Z,51.18
2022-08-17T17:49:03.629Z,51.83
2022-08-17T17:52:10.280Z,51.81
2022-08-17T17:55:00.033Z,52.42
2022-08-17T17:57:50.792Z,52.61
2022-08-17T18:00:26.227Z,53.96
2022-08-17T18:03:21.894Z,54.16
2022-08-17T18:06:27.030Z,55.11
2022-08-17T18:09:11.813Z,54.68
2022-08-17T18:12:06.510Z,55.50
2022-08-17T18:15:00.790Z,56.87
2022-08-17T18:17:34.088Z,57.43
2022-08-17T18:20:08.068Z,57.90
2022-08-17T18:22:42.477Z,57.92
2022-08-17T18:25:44.395Z,57.83
2022-08-17T18:28:26.846Z,58.31
2022-08-17T18:31:15.638Z,58.65
2022-08-17T18:33:52.373Z,58.10
2022-08-17T18:36:31.471Z,57.73
2022-08-17T18:39:17.012Z,58.36
2022-08-17T18:41:53.372Z,58.24
2022-08-17T18:44:30.278Z,58.70
2022-08-17T18:47:13.907Z,59.01
2022-08-17T18:49:49.893Z,59.65
2022-08-17T18:52:26.121Z,60.44
2022-08-17T18:55:09.649Z,62.33
2022-08-17T18:57:46.780Z,63.12
2022-08-17T19:00:35.635Z,63.18
2022-08-17T19:03:24.653Z,63.88
2022-08-17T19:06:18.839Z,63.57
2022-08-17T19:08:51.967Z,64.53
2022-08-17T19:11:31.685Z,64.75
2022-08-17T19:14:10.721Z,65.10
2022-08-17T19:16:51.414Z,65.34
2022-08-17T19:19:32.958Z,64.29
2022-08-17T19:22:14.605Z,65.45
2022-08-17T19:25:12.447Z,65.43
2022-08-17T19:28:01.060Z,65.36
2022-08-17T19:30:37.074Z,65.10
2022-08-17T19:33:15.174Z,66.10
2022-08-17T19:36:01.915Z,66.36
2022-08-17T19:38:46.848Z,65.91
2022-08-17T19:41:28.196Z,66.12
2022-08-17T19:44:19.761Z,66.92
2022-08-17T19:47:06.178Z,66.38
2022-08-17T19:49:53.960Z,66.34
2022-08-17T19:52:44.315Z,66.90
2022-08-17T19:55:31.529Z,67.44
2022-08-17T19:58:17.739Z,67.53
2022-08-17T20:00:53.869Z,67.98
2022-08-17T20:03:34.098Z,68.28
2022-08-17T20:06:13.883Z,68.83
2022-08-17T20:08:59.633Z,69.44
2022-08-17T20:11:38.846Z,69.72
2022-08-17T20:14:15.997Z,69.81
2022-08-17T20:16:51.104Z,70.17
2022-08-17T20:19:29.197Z,70.19
2022-08-17T20:22:11.132Z,70.25
2022-08-17T20:24:54.509Z,70.72
2022-08-17T20:27:31.474Z,70.37
2022-08-17T20:30:11.712Z,70.47
2022-08-17T20:32:57.965Z,71.37
2022-08-17T20:35:33.729Z,71.40
2022-08-17T20:38:12.797Z,71.37
2022-08-17T20:41:12.392Z,72.25
2022-08-17T20:44:02.662Z,71.98
2022-08-17T20:46:58.236Z,72.28
2022-08-17T20:49:50.761Z,72.36
2022-08-17T20:52:56.355Z,72.58
2022-08-17T20:55:55.568Z,73.28
2022-08-17T20:58:48.698Z,71.44
2022-08-17T21:01:39.481Z,71.08
2022-08-17T21:04:47.389Z,70.93
2022-08-17T21:07:29.118Z,70.81
2022-08-17T21:10:15.366Z,71.05
2022-08-17T21:12:55.212Z,71.38
2022-08-17T21:15:34.968Z,71.45
2022-08-17T21:18:16.844Z,71.79
2022-08-17T21:21:17.839Z,71.32
2022-08-17T21:24:09.247Z,71.34
2022-08-17T21:26:57.222Z,72.31
2022-08-17T21:29:33.995Z,71.87
2022-08-17T21:32:23.692Z,70.22
2022-08-17T21:35:31.037Z,70.80
2022-08-17T21:38:05.933Z,71.20
2022-08-17T21:40:39.624Z,71.26
2022-08-17T21:43:27.111Z,71.46
2022-08-17T21:46:06.795Z,71.70
2022-08-17T21:48:48.069Z,72.14
2022-08-17T21:51:27.425Z,72.05
2022-08-17T21:54:06.039Z,70.94
2022-08-17T21:56:47.205Z,70.84
2022-08-17T21:59:27.426Z,70.47
2022-08-17T22:02:03.207Z,70.19
2022-08-17T22:04:39.608Z,64.48
2022-08-17T22:07:14.831Z,63.68
2022-08-17T22:09:51.013Z,62.99
2022-08-17T22:12:25.119Z,62.64
2022-08-17T22:15:02.154Z,63.40
2022-08-17T22:17:40.149Z,65.07
2022-08-17T22:20:17.706Z,66.06
2022-08-17T22:23:31.316Z,67.88
2022-08-17T22:26:12.751Z,68.18
2022-08-17T22:28:50.257Z,70.06
2022-08-17T22:31:26.032Z,70.25
2022-08-17T22:34:14.478Z,72.69
2022-08-17T22:36:47.568Z,73.58
2022-08-17T22:39:44.802Z,73.55
2022-08-17T22:42:19.367Z,75.51
2022-08-17T22:44:54.400Z,75.41
2022-08-17T22:47:32.861Z,77.41
2022-08-17T22:50:18.706Z,78.68
2022-08-17T22:53:17.864Z,80.17
2022-08-17T22:56:13.435Z,80.79
2022-08-17T22:59:13.276Z,81.87
2022-08-17T23:02:11.634Z,84.18
2022-08-17T23:04:48.578Z,86.91
2022-08-17T23:07:22.643Z,88.53
2022-08-17T23:09:55.765Z,88.61
2022-08-17T23:12:29.198Z,90.58
2022-08-17T23:15:04.160Z,92.37
2022-08-17T23:17:38.199Z,94.03
2022-08-17T23:20:15.130Z,95.96
2022-08-17T23:22:51.736Z,98.33
2022-08-17T23:25:29.546Z,99.87
2022-08-17T23:28:05.851Z,100.00
2022-08-17T23:30:43.926Z,100.00
2022-08-17T23:33:22.384Z,100.00
2022-08-17T23:35:55.460Z,100.00
2022-08-17T23:38:29.947Z,100.00
2022-08-17T23:41:09.618Z,100.00
2022-08-17T23:43:45.866Z,100.00
2022-08-17T23:46:25.042Z,100.00
2022-08-17T23:48:58.122Z,100.00
2022-08-17T23:51:38.252Z,100.00
2022-08-17T23:54:20.478Z,100.00
2022-08-17T23:56:53.827Z,100.00
2022-08-17T23:59:27.478Z,100.00
